New Plymouth Aerodrome, New Zealand
Current Conditions -  °F | °C
As of 12:30 PM on Sunday 23 Nov 2014 (Local Time) from NZAA Reporting Station
Clear Clear  
Wind Chill: 66°   Ceiling: Unl
Heat Index: 66°   Visibility: 6mi
Dew Point: 55°   Wind: 8mph
Humidity: 68%   Direction: 230°SW
Pressure: 30.09"   Gusts: NA
Location:  39.02°S, 174.18°E
Report Text: NZAA 230030Z AUTO 23007KT 9999 NCD 19/13 Q1019 NOSIG
Loading
Personal Weather Stations






























Interactive Weather Map New forecast layout! Learn more

10-Day Weather Forecast

Advertisements
Track Severe Weather on mobile